Airfield :
LOGIN :

Register | Disclaimer

   EN    FR    IT 

 










Legend :    VFR   Marginal VFR   IFR   Intensive IFR   Very Intensive IFR
Visi :
Ceiling :
>= 8 km
>= 3000ft
5 to 8 km
1000 to 3000 ft
1500m to 5 km
500 to 1000 ft
800 to 1500m
200 to 500 ft
< 800m
< 200 ft
Symbols :   Thunderstorms  Fog  Heavy snow  Heavy precipitations  Wind > 20 kt
SIGMETs :     Misc.  Thunderstorms  Icing  Turbulence  Mountain Waves  Volcanic Ashes







- Airport Elevation : 3 ft
- IATA code : DHR


EHKD - Den Helder De Kooy

CURRENT METAR :
  • 211655Z AUTO 27028KT 9999 FEW039 SCT048 14/08 Q1006 BLU 25026G36KT 9999 SCT035 BKN045 TEMPO SCT020CB BKN025

EXPIRED METARs :
  • 211625Z AUTO 24022KT 9999 FEW023CB 13/08 Q1006 RETS BLU 25026G36KT 9999 SCT035 BKN045 TEMPO SCT020CB BKN025
  • 211555Z AUTO 25021KT 220V280 9999 TS FEW058 SCT066 BKN080 13/08 Q1007 BLU 25026G36KT 9999 SCT030 SCT040 TEMPO 28035G45KT 3000 TSRAGR FEW015 SCT020CB BKN025
  • 211525Z AUTO 24031G43KT 220V280 6000 TSRA FEW015CB SCT037 BKN041 10/08 Q1006 WHT 25026G36KT 9999 SCT030 SCT040 TEMPO 4000 TSRAGR FEW015 SCT020CB BKN025
  • 211455Z AUTO 26025KT 230V290 9999 FEW023CB SCT039 BKN043 BKN052 13/07 Q1006 REDZ BLU 25026G36KT 9999 SCT030 SCT040 TEMPO 4500 TSRAGR FEW015 SCT020CB BKN025
  • 211425Z AUTO 25025G35KT 220V280 9999 SHRA FEW032CB BKN036 BKN041 BKN057 15/07 Q1006 RETS BLU 25026G36KT 9999 SCT030 SCT040 TEMPO FEW020CB BKN030

TAF TAF EHKD
Valid from the 21 at 17:00 until the 22 at 05:00 UTC


211600Z 2117/2205 24020G30KT 9999 SCT035
TEMPO 2117/2205 4000 SHRA SCT022CB BKN033
PROB40
TEMPO 2117/2121 27025G40KT 3000 TSRAGR FEW015 SCT020CB BKN030
No reported NOTAMs for that airfield.
1 SIGMET reported for the Amsterdam FIR (EHAA) :
 
Embedded thunderstorms
EHAA SIGMET 3 VALID 211630/211730 EHDB
EHAA AMSTERDAM FIR EMBD TS OBS APRX 15KM WID LINE BTN N5119 E00419 - N5214 E00450 - N5318 E00704 TOP FL300 MOV E 35KT WKN=



MET'MAP, your aeronautical weather chart ! - Copyright ORBIFLY December 2007 - Disclaimer

ORBIFLY MET'MAP TEAM :

Programming & Development : Alexandra Zaïnal
Concept & Development : Baudouin d'Aumeries
Co-Development & Prog : Marc-Olivier Méhu
Technical & hardware support : Manuel Goepfert

Contact : metmap@orbifly.com




SOURCES & CREDITS :

   NOAA